createdAt,value
2022-11-05T00:01:40.815Z,1342
2022-11-05T00:06:59.899Z,1345
2022-11-05T00:12:18.078Z,1345
2022-11-05T00:17:36.870Z,1342
2022-11-05T00:22:55.328Z,1340
2022-11-05T00:28:14.124Z,1348
2022-11-05T00:33:32.917Z,1374
2022-11-05T00:38:51.649Z,1398
2022-11-05T00:44:10.135Z,1405
2022-11-05T00:49:28.970Z,1407
2022-11-05T00:54:47.432Z,1419
2022-11-05T01:00:05.919Z,1433
2022-11-05T01:05:24.684Z,1437
2022-11-05T01:10:43.230Z,1434
2022-11-05T01:16:01.964Z,1432
2022-11-05T01:21:20.859Z,1437
2022-11-05T01:26:39.594Z,1443
2022-11-05T01:31:58.418Z,1443
2022-11-05T01:37:17.178Z,1434
2022-11-05T01:42:35.647Z,1442
2022-11-05T01:47:54.416Z,1441
2022-11-05T01:53:13.513Z,1439
2022-11-05T01:58:32.324Z,1435
2022-11-05T02:03:51.100Z,1434
2022-11-05T02:09:09.626Z,1442
2022-11-05T02:14:28.077Z,1440
2022-11-05T02:19:46.836Z,1437
2022-11-05T02:25:05.459Z,1438
2022-11-05T02:30:23.907Z,1439
2022-11-05T02:35:42.387Z,1445
2022-11-05T02:41:00.620Z,1445
2022-11-05T02:46:19.232Z,1439
2022-11-05T02:51:37.991Z,1439
2022-11-05T02:56:56.822Z,1439
2022-11-05T03:02:15.665Z,1436
2022-11-05T03:07:34.084Z,1433
2022-11-05T03:12:52.893Z,1430
2022-11-05T03:18:11.501Z,1428
2022-11-05T03:23:30.279Z,1426
2022-11-05T03:28:49.100Z,1433
2022-11-05T03:34:07.587Z,1428
2022-11-05T03:39:26.049Z,1420
2022-11-05T03:44:44.847Z,1426
2022-11-05T03:49:47.693Z,1424
2022-11-05T03:55:06.193Z,1425
2022-11-05T04:00:24.157Z,1424
2022-11-05T04:05:42.780Z,1425
2022-11-05T04:11:01.259Z,1421
2022-11-05T04:16:19.490Z,1422
2022-11-05T04:21:37.397Z,1421
2022-11-05T04:26:55.896Z,1423
2022-11-05T04:32:14.397Z,1426
2022-11-05T04:37:32.760Z,1416
2022-11-05T04:42:51.260Z,1411
2022-11-05T04:48:09.774Z,1408
2022-11-05T04:53:27.671Z,1410
2022-11-05T04:58:46.463Z,1408
2022-11-05T05:04:04.685Z,1408
2022-11-05T05:09:23.157Z,1406
2022-11-05T05:14:41.672Z,1405
2022-11-05T05:20:00.703Z,1403
2022-11-05T05:25:18.877Z,1410
2022-11-05T05:30:37.090Z,1405
2022-11-05T05:35:55.691Z,1413
2022-11-05T05:41:13.618Z,1413
2022-11-05T05:46:32.082Z,1407
2022-11-05T05:51:50.927Z,1414
2022-11-05T05:57:09.147Z,1419
2022-11-05T06:02:27.767Z,1419
2022-11-05T06:07:46.797Z,1424
2022-11-05T06:13:05.090Z,1419
2022-11-05T06:18:23.850Z,1424
2022-11-05T06:23:42.372Z,1424
2022-11-05T06:29:01.030Z,1439
2022-11-05T06:34:19.240Z,1419
2022-11-05T06:39:37.567Z,1415
2022-11-05T06:44:55.770Z,1360
2022-11-05T06:50:13.717Z,1349
2022-11-05T06:55:32.206Z,1386
2022-11-05T07:00:51.086Z,1389
2022-11-05T07:06:09.375Z,1402
2022-11-05T07:11:27.950Z,1420
2022-11-05T07:16:46.459Z,924
2022-11-05T07:22:04.379Z,1024
2022-11-05T07:27:22.862Z,1049
2022-11-05T07:32:41.417Z,1054
2022-11-05T07:38:01.506Z,1051
2022-11-05T07:43:22.760Z,1044
2022-11-05T07:48:41.223Z,1053
2022-11-05T07:53:59.406Z,1044
2022-11-05T07:59:17.662Z,1045
2022-11-05T08:04:36.503Z,1050
2022-11-05T08:09:55.242Z,1069
2022-11-05T08:15:14.032Z,1069
2022-11-05T08:20:32.316Z,1085
2022-11-05T08:25:51.055Z,1103
2022-11-05T08:30:53.934Z,1150
2022-11-05T08:36:12.156Z,1147
2022-11-05T08:41:30.915Z,1131
2022-11-05T08:46:49.120Z,1117
2022-11-05T08:52:07.616Z,1102
2022-11-05T08:57:26.125Z,634
2022-11-05T09:02:44.685Z,469
2022-11-05T09:08:03.464Z,471
2022-11-05T09:13:22.200Z,525
2022-11-05T09:18:42.232Z,529
2022-11-05T09:24:00.706Z,513
2022-11-05T09:29:19.159Z,566
2022-11-05T09:34:37.925Z,546
2022-11-05T09:39:56.407Z,485
2022-11-05T09:45:15.131Z,481
2022-11-05T09:50:33.964Z,486
2022-11-05T09:55:52.619Z,505
2022-11-05T10:01:10.932Z,520
2022-11-05T10:06:29.658Z,525
2022-11-05T10:11:48.118Z,538
2022-11-05T10:17:06.873Z,540
2022-11-05T10:22:25.779Z,561
2022-11-05T10:27:43.719Z,573
2022-11-05T10:33:02.185Z,575
2022-11-05T10:38:20.810Z,583
2022-11-05T10:43:39.209Z,598
2022-11-05T10:48:57.971Z,602
2022-11-05T10:54:16.726Z,610
2022-11-05T10:59:35.670Z,611
2022-11-05T11:04:54.460Z,632
2022-11-05T11:10:13.214Z,664
2022-11-05T11:15:31.964Z,485
2022-11-05T11:20:50.702Z,428
2022-11-05T11:26:09.503Z,460
2022-11-05T11:31:28.227Z,510
2022-11-05T11:36:47.004Z,530
2022-11-05T11:42:05.759Z,538
2022-11-05T11:47:24.546Z,560
2022-11-05T11:52:46.085Z,578
2022-11-05T11:58:04.610Z,608
2022-11-05T12:03:23.093Z,622
2022-11-05T12:08:45.213Z,630
2022-11-05T12:14:16.043Z,665
2022-11-05T12:19:34.760Z,653
2022-11-05T12:24:53.521Z,660
2022-11-05T12:30:12.466Z,544
2022-11-05T12:35:30.859Z,603
2022-11-05T12:40:49.335Z,662
2022-11-05T12:46:08.271Z,671
2022-11-05T12:51:26.525Z,680
2022-11-05T12:56:45.289Z,691
2022-11-05T13:02:03.997Z,695
2022-11-05T13:07:23.202Z,696
2022-11-05T13:12:41.970Z,699
2022-11-05T13:18:00.764Z,705
2022-11-05T13:23:19.587Z,658
2022-11-05T13:28:38.345Z,685
2022-11-05T13:33:57.188Z,712
2022-11-05T13:39:18.655Z,772
2022-11-05T13:44:37.335Z,794
2022-11-05T13:49:56.126Z,796
2022-11-05T13:55:14.864Z,803
2022-11-05T14:00:33.800Z,814
2022-11-05T14:05:52.576Z,827
2022-11-05T14:11:11.053Z,842
2022-11-05T14:16:29.798Z,854
2022-11-05T14:21:48.591Z,867
2022-11-05T14:27:07.289Z,900
2022-11-05T14:32:26.083Z,900
2022-11-05T14:37:44.846Z,897
2022-11-05T14:43:03.579Z,891
2022-11-05T14:48:22.331Z,883
2022-11-05T14:53:41.122Z,862
2022-11-05T14:58:59.868Z,882
2022-11-05T15:04:03.060Z,910
2022-11-05T15:09:21.802Z,888
2022-11-05T15:14:40.557Z,863
2022-11-05T15:19:59.364Z,892
2022-11-05T15:25:18.143Z,880
2022-11-05T15:30:36.990Z,880
2022-11-05T15:35:55.733Z,883
2022-11-05T15:41:14.569Z,908
2022-11-05T15:46:33.341Z,951
2022-11-05T15:51:52.078Z,1001
2022-11-05T15:57:10.900Z,1039
2022-11-05T16:02:29.923Z,1049
2022-11-05T16:07:49.237Z,1079
2022-11-05T16:13:07.991Z,1067
2022-11-05T16:18:25.974Z,1064
2022-11-05T16:23:44.236Z,1091
2022-11-05T16:29:02.434Z,1116
2022-11-05T16:34:21.198Z,1123
2022-11-05T16:39:39.636Z,1144
2022-11-05T16:44:58.385Z,1130
2022-11-05T16:50:16.378Z,1130
2022-11-05T16:55:36.289Z,1142
2022-11-05T17:00:55.034Z,1105
2022-11-05T17:06:13.563Z,1089
2022-11-05T17:11:32.017Z,1108
2022-11-05T17:16:50.805Z,1096
2022-11-05T17:22:09.285Z,1075
2022-11-05T17:27:28.046Z,1084
2022-11-05T17:32:46.861Z,1085
2022-11-05T17:38:06.107Z,1095
2022-11-05T17:43:24.874Z,1109
2022-11-05T17:48:43.651Z,1118
2022-11-05T17:54:02.093Z,1102
2022-11-05T17:59:20.603Z,1051
2022-11-05T18:04:39.059Z,1050
2022-11-05T18:09:57.800Z,1044
2022-11-05T18:15:16.553Z,851
2022-11-05T18:20:35.331Z,915
2022-11-05T18:25:53.875Z,1022
2022-11-05T18:31:16.820Z,1060
2022-11-05T18:36:37.146Z,1064
2022-11-05T18:41:55.408Z,1063
2022-11-05T18:47:13.616Z,1066
2022-11-05T18:52:31.873Z,1068
2022-11-05T18:57:50.598Z,685
2022-11-05T19:03:09.400Z,729
2022-11-05T19:08:27.856Z,841
2022-11-05T19:13:46.657Z,925
2022-11-05T19:19:05.117Z,978
2022-11-05T19:24:23.940Z,1005
2022-11-05T19:29:42.265Z,1020
2022-11-05T19:35:00.458Z,1022
2022-11-05T19:40:19.243Z,1015
2022-11-05T19:45:44.431Z,999
2022-11-05T19:51:03.614Z,981
2022-11-05T19:56:22.484Z,969
2022-11-05T20:01:41.304Z,962
2022-11-05T20:07:00.158Z,949
2022-11-05T20:12:18.908Z,930
2022-11-05T20:17:37.651Z,930
2022-11-05T20:22:56.450Z,927
2022-11-05T20:27:59.308Z,851
2022-11-05T20:33:18.042Z,874
2022-11-05T20:38:36.549Z,925
2022-11-05T20:43:55.326Z,942
2022-11-05T20:49:14.166Z,949
2022-11-05T20:54:32.425Z,960
2022-11-05T20:59:50.948Z,959
2022-11-05T21:05:08.959Z,959
2022-11-05T21:10:27.723Z,958
2022-11-05T21:15:46.241Z,958
2022-11-05T21:21:04.753Z,951
2022-11-05T21:26:23.231Z,956
2022-11-05T21:31:41.524Z,955
2022-11-05T21:36:59.719Z,949
2022-11-05T21:42:17.621Z,959
2022-11-05T21:47:36.128Z,965
2022-11-05T21:52:54.429Z,997
2022-11-05T21:58:12.907Z,1062
2022-11-05T22:03:32.140Z,1043
2022-11-05T22:08:50.579Z,1066
2022-11-05T22:14:09.359Z,1011
2022-11-05T22:19:28.179Z,1033
2022-11-05T22:24:46.463Z,1079
2022-11-05T22:30:04.951Z,1124
2022-11-05T22:35:23.736Z,1156
2022-11-05T22:40:42.208Z,1173
2022-11-05T22:46:00.630Z,1203
2022-11-05T22:51:18.831Z,1226
2022-11-05T22:56:37.623Z,1238
2022-11-05T23:01:56.473Z,1255
2022-11-05T23:07:15.837Z,1253
2022-11-05T23:12:34.062Z,1253
2022-11-05T23:17:52.821Z,1263
2022-11-05T23:23:10.782Z,1269
2022-11-05T23:28:29.317Z,1270
2022-11-05T23:33:47.535Z,1270
2022-11-05T23:39:06.118Z,1276
2022-11-05T23:44:24.352Z,1282
2022-11-05T23:49:43.095Z,1289
2022-11-05T23:55:01.338Z,1290
